sensor_id;sensor_type;location;lat;lon;timestamp;P1;P2;P0
54553;PMS5003;40450;55.848;-3.572;2022-09-09T00:02:28;0;0;
54553;PMS5003;40450;55.848;-3.572;2022-09-09T00:04:59;0;0;
54553;PMS5003;40450;55.848;-3.572;2022-09-09T00:07:34;1;1;
54553;PMS5003;40450;55.848;-3.572;2022-09-09T00:10:00;0;0;
54553;PMS5003;40450;55.848;-3.572;2022-09-09T00:12:34;0;0;
54553;PMS5003;40450;55.848;-3.572;2022-09-09T00:15:02;0;0;
54553;PMS5003;40450;55.848;-3.572;2022-09-09T00:17:33;0;0;
54553;PMS5003;40450;55.848;-3.572;2022-09-09T00:20:01;0;0;
54553;PMS5003;40450;55.848;-3.572;2022-09-09T00:22:31;0;0;
54553;PMS5003;40450;55.848;-3.572;2022-09-09T00:25:04;2;1;
54553;PMS5003;40450;55.848;-3.572;2022-09-09T00:27:33;1;1;
54553;PMS5003;40450;55.848;-3.572;2022-09-09T00:30:12;2;2;
54553;PMS5003;40450;55.848;-3.572;2022-09-09T00:32:32;2;2;
54553;PMS5003;40450;55.848;-3.572;2022-09-09T00:35:04;6;3;
54553;PMS5003;40450;55.848;-3.572;2022-09-09T00:37:38;4;4;
54553;PMS5003;40450;55.848;-3.572;2022-09-09T00:40:06;3;3;
54553;PMS5003;40450;55.848;-3.572;2022-09-09T00:42:36;2;2;
54553;PMS5003;40450;55.848;-3.572;2022-09-09T00:45:09;4;4;
54553;PMS5003;40450;55.848;-3.572;2022-09-09T00:47:40;4;4;
54553;PMS5003;40450;55.848;-3.572;2022-09-09T00:50:09;4;3;
54553;PMS5003;40450;55.848;-3.572;2022-09-09T00:52:37;2;2;
54553;PMS5003;40450;55.848;-3.572;2022-09-09T00:55:08;4;4;
54553;PMS5003;40450;55.848;-3.572;2022-09-09T00:57:36;5;2;
54553;PMS5003;40450;55.848;-3.572;2022-09-09T01:02:38;5;4;
54553;PMS5003;40450;55.848;-3.572;2022-09-09T01:05:10;1;1;
54553;PMS5003;40450;55.848;-3.572;2022-09-09T01:07:38;5;3;
54553;PMS5003;40450;55.848;-3.572;2022-09-09T01:10:09;3;3;
54553;PMS5003;40450;55.848;-3.572;2022-09-09T01:12:39;2;2;
54553;PMS5003;40450;55.848;-3.572;2022-09-09T01:15:10;1;1;
54553;PMS5003;40450;55.848;-3.572;2022-09-09T01:20:10;2;2;
54553;PMS5003;40450;55.848;-3.572;2022-09-09T01:22:42;2;2;
54553;PMS5003;40450;55.848;-3.572;2022-09-09T01:25:15;2;2;
54553;PMS5003;40450;55.848;-3.572;2022-09-09T01:27:40;2;2;
54553;PMS5003;40450;55.848;-3.572;2022-09-09T01:30:12;2;2;
54553;PMS5003;40450;55.848;-3.572;2022-09-09T01:32:43;3;3;
54553;PMS5003;40450;55.848;-3.572;2022-09-09T01:35:13;3;3;
54553;PMS5003;40450;55.848;-3.572;2022-09-09T01:37:42;3;3;
54553;PMS5003;40450;55.848;-3.572;2022-09-09T01:40:13;4;4;
54553;PMS5003;40450;55.848;-3.572;2022-09-09T01:42:43;0;0;
54553;PMS5003;40450;55.848;-3.572;2022-09-09T01:45:18;3;3;
54553;PMS5003;40450;55.848;-3.572;2022-09-09T01:47:44;3;3;
54553;PMS5003;40450;55.848;-3.572;2022-09-09T01:50:15;3;3;
54553;PMS5003;40450;55.848;-3.572;2022-09-09T01:52:45;3;3;
54553;PMS5003;40450;55.848;-3.572;2022-09-09T01:55:15;2;2;
54553;PMS5003;40450;55.848;-3.572;2022-09-09T01:57:47;5;3;
54553;PMS5003;40450;55.848;-3.572;2022-09-09T02:00:15;2;2;
54553;PMS5003;40450;55.848;-3.572;2022-09-09T02:02:48;2;2;
54553;PMS5003;40450;55.848;-3.572;2022-09-09T02:05:20;1;1;
54553;PMS5003;40450;55.848;-3.572;2022-09-09T02:07:47;3;3;
54553;PMS5003;40450;55.848;-3.572;2022-09-09T02:10:19;4;3;
54553;PMS5003;40450;55.848;-3.572;2022-09-09T02:12:49;3;3;
54553;PMS5003;40450;55.848;-3.572;2022-09-09T02:15:20;5;4;
54553;PMS5003;40450;55.848;-3.572;2022-09-09T02:17:49;4;4;
54553;PMS5003;40450;55.848;-3.572;2022-09-09T02:20:19;4;4;
54553;PMS5003;40450;55.848;-3.572;2022-09-09T02:22:50;2;2;
54553;PMS5003;40450;55.848;-3.572;2022-09-09T02:25:21;4;4;
54553;PMS5003;40450;55.848;-3.572;2022-09-09T02:27:50;7;6;
54553;PMS5003;40450;55.848;-3.572;2022-09-09T02:30:21;4;3;
54553;PMS5003;40450;55.848;-3.572;2022-09-09T02:32:52;5;5;
54553;PMS5003;40450;55.848;-3.572;2022-09-09T02:35:22;5;4;
54553;PMS5003;40450;55.848;-3.572;2022-09-09T02:37:52;5;3;
54553;PMS5003;40450;55.848;-3.572;2022-09-09T02:40:22;3;3;
54553;PMS5003;40450;55.848;-3.572;2022-09-09T02:42:53;3;3;
54553;PMS5003;40450;55.848;-3.572;2022-09-09T02:45:23;2;2;
54553;PMS5003;40450;55.848;-3.572;2022-09-09T02:47:55;2;2;
54553;PMS5003;40450;55.848;-3.572;2022-09-09T02:50:25;6;4;
54553;PMS5003;40450;55.848;-3.572;2022-09-09T02:52:57;6;5;
54553;PMS5003;40450;55.848;-3.572;2022-09-09T02:55:29;4;3;
54553;PMS5003;40450;55.848;-3.572;2022-09-09T02:57:55;4;3;
54553;PMS5003;40450;55.848;-3.572;2022-09-09T03:00:26;1;1;
54553;PMS5003;40450;55.848;-3.572;2022-09-09T03:02:55;2;2;
54553;PMS5003;40450;55.848;-3.572;2022-09-09T03:05:25;3;2;
54553;PMS5003;40450;55.848;-3.572;2022-09-09T03:07:56;3;3;
54553;PMS5003;40450;55.848;-3.572;2022-09-09T03:10:26;3;3;
54553;PMS5003;40450;55.848;-3.572;2022-09-09T03:12:56;2;2;
54553;PMS5003;40450;55.848;-3.572;2022-09-09T03:15:27;1;1;
54553;PMS5003;40450;55.848;-3.572;2022-09-09T03:17:57;1;1;
54553;PMS5003;40450;55.848;-3.572;2022-09-09T03:20:28;2;2;
54553;PMS5003;40450;55.848;-3.572;2022-09-09T03:22:58;3;3;
54553;PMS5003;40450;55.848;-3.572;2022-09-09T03:25:28;2;2;
54553;PMS5003;40450;55.848;-3.572;2022-09-09T03:27:58;3;3;
54553;PMS5003;40450;55.848;-3.572;2022-09-09T03:30:28;2;2;
54553;PMS5003;40450;55.848;-3.572;2022-09-09T03:32:59;4;3;
54553;PMS5003;40450;55.848;-3.572;2022-09-09T03:35:29;2;2;
54553;PMS5003;40450;55.848;-3.572;2022-09-09T03:37:59;3;3;
54553;PMS5003;40450;55.848;-3.572;2022-09-09T03:40:30;5;2;
54553;PMS5003;40450;55.848;-3.572;2022-09-09T03:43:00;5;5;
54553;PMS5003;40450;55.848;-3.572;2022-09-09T03:45:30;4;4;
54553;PMS5003;40450;55.848;-3.572;2022-09-09T03:48:01;4;4;
54553;PMS5003;40450;55.848;-3.572;2022-09-09T03:50:31;6;6;
54553;PMS5003;40450;55.848;-3.572;2022-09-09T03:53:02;6;6;
54553;PMS5003;40450;55.848;-3.572;2022-09-09T03:55:32;7;6;
54553;PMS5003;40450;55.848;-3.572;2022-09-09T03:58:02;7;7;
54553;PMS5003;40450;55.848;-3.572;2022-09-09T04:00:32;6;5;
54553;PMS5003;40450;55.848;-3.572;2022-09-09T04:03:08;6;5;
54553;PMS5003;40450;55.848;-3.572;2022-09-09T04:05:34;9;9;
54553;PMS5003;40450;55.848;-3.572;2022-09-09T04:08:04;4;4;
54553;PMS5003;40450;55.848;-3.572;2022-09-09T04:10:34;7;7;
54553;PMS5003;40450;55.848;-3.572;2022-09-09T04:13:05;5;4;
54553;PMS5003;40450;55.848;-3.572;2022-09-09T04:15:35;7;7;
54553;PMS5003;40450;55.848;-3.572;2022-09-09T04:18:05;10;7;
54553;PMS5003;40450;55.848;-3.572;2022-09-09T04:20:36;9;7;
54553;PMS5003;40450;55.848;-3.572;2022-09-09T04:23:06;5;5;
54553;PMS5003;40450;55.848;-3.572;2022-09-09T04:25:37;6;6;
54553;PMS5003;40450;55.848;-3.572;2022-09-09T04:28:07;7;5;
54553;PMS5003;40450;55.848;-3.572;2022-09-09T04:30:37;5;5;
54553;PMS5003;40450;55.848;-3.572;2022-09-09T04:33:08;11;9;
54553;PMS5003;40450;55.848;-3.572;2022-09-09T04:35:38;9;8;
54553;PMS5003;40450;55.848;-3.572;2022-09-09T04:38:08;8;8;
54553;PMS5003;40450;55.848;-3.572;2022-09-09T04:40:38;9;6;
54553;PMS5003;40450;55.848;-3.572;2022-09-09T04:43:09;9;9;
54553;PMS5003;40450;55.848;-3.572;2022-09-09T04:45:39;6;6;
54553;PMS5003;40450;55.848;-3.572;2022-09-09T04:48:10;7;7;
54553;PMS5003;40450;55.848;-3.572;2022-09-09T04:50:41;7;7;
54553;PMS5003;40450;55.848;-3.572;2022-09-09T04:53:11;10;8;
54553;PMS5003;40450;55.848;-3.572;2022-09-09T04:55:42;9;7;
54553;PMS5003;40450;55.848;-3.572;2022-09-09T04:58:12;10;8;
54553;PMS5003;40450;55.848;-3.572;2022-09-09T05:00:43;9;9;
54553;PMS5003;40450;55.848;-3.572;2022-09-09T05:03:13;5;5;
54553;PMS5003;40450;55.848;-3.572;2022-09-09T05:05:44;8;6;
54553;PMS5003;40450;55.848;-3.572;2022-09-09T05:08:14;9;9;
54553;PMS5003;40450;55.848;-3.572;2022-09-09T05:10:44;7;6;
54553;PMS5003;40450;55.848;-3.572;2022-09-09T05:13:15;8;6;
54553;PMS5003;40450;55.848;-3.572;2022-09-09T05:18:15;9;8;
54553;PMS5003;40450;55.848;-3.572;2022-09-09T05:20:46;4;4;
54553;PMS5003;40450;55.848;-3.572;2022-09-09T05:23:16;6;5;
54553;PMS5003;40450;55.848;-3.572;2022-09-09T05:28:17;3;3;
54553;PMS5003;40450;55.848;-3.572;2022-09-09T05:30:51;4;3;
54553;PMS5003;40450;55.848;-3.572;2022-09-09T05:33:17;4;4;
54553;PMS5003;40450;55.848;-3.572;2022-09-09T05:35:48;3;3;
54553;PMS5003;40450;55.848;-3.572;2022-09-09T05:38:18;5;3;
54553;PMS5003;40450;55.848;-3.572;2022-09-09T05:40:48;8;7;
54553;PMS5003;40450;55.848;-3.572;2022-09-09T05:43:19;6;5;
54553;PMS5003;40450;55.848;-3.572;2022-09-09T05:48:20;6;6;
54553;PMS5003;40450;55.848;-3.572;2022-09-09T05:50:52;8;5;
54553;PMS5003;40450;55.848;-3.572;2022-09-09T05:53:20;7;7;
54553;PMS5003;40450;55.848;-3.572;2022-09-09T05:58:22;6;5;
54553;PMS5003;40450;55.848;-3.572;2022-09-09T06:00:52;7;7;
54553;PMS5003;40450;55.848;-3.572;2022-09-09T06:03:22;8;7;
54553;PMS5003;40450;55.848;-3.572;2022-09-09T06:05:56;7;5;
54553;PMS5003;40450;55.848;-3.572;2022-09-09T06:08:24;6;6;
54553;PMS5003;40450;55.848;-3.572;2022-09-09T06:11:00;5;5;
54553;PMS5003;40450;55.848;-3.572;2022-09-09T06:13:24;6;6;
54553;PMS5003;40450;55.848;-3.572;2022-09-09T06:15:55;7;6;
54553;PMS5003;40450;55.848;-3.572;2022-09-09T06:18:25;7;7;
54553;PMS5003;40450;55.848;-3.572;2022-09-09T06:20:56;4;4;
54553;PMS5003;40450;55.848;-3.572;2022-09-09T06:23:26;2;2;
54553;PMS5003;40450;55.848;-3.572;2022-09-09T06:28:26;4;4;
54553;PMS5003;40450;55.848;-3.572;2022-09-09T06:30:58;5;5;
54553;PMS5003;40450;55.848;-3.572;2022-09-09T06:33:31;3;3;
54553;PMS5003;40450;55.848;-3.572;2022-09-09T06:35:58;5;5;
54553;PMS5003;40450;55.848;-3.572;2022-09-09T06:38:28;7;6;
54553;PMS5003;40450;55.848;-3.572;2022-09-09T06:40:59;4;4;
54553;PMS5003;40450;55.848;-3.572;2022-09-09T06:43:29;3;3;
54553;PMS5003;40450;55.848;-3.572;2022-09-09T06:46:00;5;4;
54553;PMS5003;40450;55.848;-3.572;2022-09-09T06:48:30;3;3;
54553;PMS5003;40450;55.848;-3.572;2022-09-09T06:51:01;7;5;
54553;PMS5003;40450;55.848;-3.572;2022-09-09T06:53:31;5;5;
54553;PMS5003;40450;55.848;-3.572;2022-09-09T06:56:03;10;10;
54553;PMS5003;40450;55.848;-3.572;2022-09-09T06:58:32;6;5;
54553;PMS5003;40450;55.848;-3.572;2022-09-09T07:01:03;6;5;
54553;PMS5003;40450;55.848;-3.572;2022-09-09T07:03:33;9;4;
54553;PMS5003;40450;55.848;-3.572;2022-09-09T07:06:04;3;3;
54553;PMS5003;40450;55.848;-3.572;2022-09-09T07:08:34;5;2;
54553;PMS5003;40450;55.848;-3.572;2022-09-09T07:11:05;3;3;
54553;PMS5003;40450;55.848;-3.572;2022-09-09T07:13:35;5;4;
54553;PMS5003;40450;55.848;-3.572;2022-09-09T07:16:06;2;2;
54553;PMS5003;40450;55.848;-3.572;2022-09-09T07:18:36;2;2;
54553;PMS5003;40450;55.848;-3.572;2022-09-09T07:21:07;4;4;
54553;PMS5003;40450;55.848;-3.572;2022-09-09T07:23:37;6;6;
54553;PMS5003;40450;55.848;-3.572;2022-09-09T07:26:08;4;4;
54553;PMS5003;40450;55.848;-3.572;2022-09-09T07:28:37;5;5;
54553;PMS5003;40450;55.848;-3.572;2022-09-09T07:31:12;4;4;
54553;PMS5003;40450;55.848;-3.572;2022-09-09T07:33:38;8;6;
54553;PMS5003;40450;55.848;-3.572;2022-09-09T07:36:10;6;5;
54553;PMS5003;40450;55.848;-3.572;2022-09-09T07:38:39;6;5;
54553;PMS5003;40450;55.848;-3.572;2022-09-09T07:41:10;5;5;
54553;PMS5003;40450;55.848;-3.572;2022-09-09T07:43:39;3;2;
54553;PMS5003;40450;55.848;-3.572;2022-09-09T07:46:11;6;5;
54553;PMS5003;40450;55.848;-3.572;2022-09-09T07:48:43;7;7;
54553;PMS5003;40450;55.848;-3.572;2022-09-09T07:51:11;6;6;
54553;PMS5003;40450;55.848;-3.572;2022-09-09T07:53:41;5;5;
54553;PMS5003;40450;55.848;-3.572;2022-09-09T07:56:12;4;4;
54553;PMS5003;40450;55.848;-3.572;2022-09-09T07:58:44;3;2;
54553;PMS5003;40450;55.848;-3.572;2022-09-09T08:01:13;4;4;
54553;PMS5003;40450;55.848;-3.572;2022-09-09T08:03:42;2;2;
54553;PMS5003;40450;55.848;-3.572;2022-09-09T08:06:13;4;3;
54553;PMS5003;40450;55.848;-3.572;2022-09-09T08:08:44;7;5;
54553;PMS5003;40450;55.848;-3.572;2022-09-09T08:11:15;2;2;
54553;PMS5003;40450;55.848;-3.572;2022-09-09T08:13:45;4;4;
54553;PMS5003;40450;55.848;-3.572;2022-09-09T08:16:17;4;4;
54553;PMS5003;40450;55.848;-3.572;2022-09-09T08:18:46;2;2;
54553;PMS5003;40450;55.848;-3.572;2022-09-09T08:21:18;7;4;
54553;PMS5003;40450;55.848;-3.572;2022-09-09T08:23:47;2;2;
54553;PMS5003;40450;55.848;-3.572;2022-09-09T08:26:19;4;3;
54553;PMS5003;40450;55.848;-3.572;2022-09-09T08:28:49;4;3;
54553;PMS5003;40450;55.848;-3.572;2022-09-09T08:31:19;2;2;
54553;PMS5003;40450;55.848;-3.572;2022-09-09T08:33:49;4;4;
54553;PMS5003;40450;55.848;-3.572;2022-09-09T08:36:20;5;5;
54553;PMS5003;40450;55.848;-3.572;2022-09-09T08:38:50;7;6;
54553;PMS5003;40450;55.848;-3.572;2022-09-09T08:41:27;5;5;
54553;PMS5003;40450;55.848;-3.572;2022-09-09T08:43:50;3;3;
54553;PMS5003;40450;55.848;-3.572;2022-09-09T08:46:23;3;3;
54553;PMS5003;40450;55.848;-3.572;2022-09-09T08:48:54;5;4;
54553;PMS5003;40450;55.848;-3.572;2022-09-09T08:51:23;6;4;
54553;PMS5003;40450;55.848;-3.572;2022-09-09T08:53:53;3;3;
54553;PMS5003;40450;55.848;-3.572;2022-09-09T08:56:24;3;3;
54553;PMS5003;40450;55.848;-3.572;2022-09-09T08:58:54;5;4;
54553;PMS5003;40450;55.848;-3.572;2022-09-09T09:01:27;6;4;
54553;PMS5003;40450;55.848;-3.572;2022-09-09T09:03:56;3;3;
54553;PMS5003;40450;55.848;-3.572;2022-09-09T09:06:26;3;3;
54553;PMS5003;40450;55.848;-3.572;2022-09-09T09:08:56;9;4;
54553;PMS5003;40450;55.848;-3.572;2022-09-09T09:11:24;6;6;
54553;PMS5003;40450;55.848;-3.572;2022-09-09T09:13:56;6;4;
54553;PMS5003;40450;55.848;-3.572;2022-09-09T09:16:28;4;2;
54553;PMS5003;40450;55.848;-3.572;2022-09-09T09:18:56;4;4;
54553;PMS5003;40450;55.848;-3.572;2022-09-09T09:21:29;4;4;
54553;PMS5003;40450;55.848;-3.572;2022-09-09T09:23:57;5;4;
54553;PMS5003;40450;55.848;-3.572;2022-09-09T09:26:29;4;4;
54553;PMS5003;40450;55.848;-3.572;2022-09-09T09:28:58;5;3;
54553;PMS5003;40450;55.848;-3.572;2022-09-09T09:31:28;3;3;
54553;PMS5003;40450;55.848;-3.572;2022-09-09T09:33:58;4;4;
54553;PMS5003;40450;55.848;-3.572;2022-09-09T09:36:33;5;5;
54553;PMS5003;40450;55.848;-3.572;2022-09-09T09:39:00;6;6;
54553;PMS5003;40450;55.848;-3.572;2022-09-09T09:41:30;5;4;
54553;PMS5003;40450;55.848;-3.572;2022-09-09T09:44:00;5;5;
54553;PMS5003;40450;55.848;-3.572;2022-09-09T09:46:30;4;4;
54553;PMS5003;40450;55.848;-3.572;2022-09-09T09:49:01;6;4;
54553;PMS5003;40450;55.848;-3.572;2022-09-09T09:51:31;6;6;
54553;PMS5003;40450;55.848;-3.572;2022-09-09T09:54:07;10;7;
54553;PMS5003;40450;55.848;-3.572;2022-09-09T09:56:31;8;6;
54553;PMS5003;40450;55.848;-3.572;2022-09-09T09:59:01;8;5;
54553;PMS5003;40450;55.848;-3.572;2022-09-09T10:01:32;6;6;
54553;PMS5003;40450;55.848;-3.572;2022-09-09T10:04:12;8;5;
54553;PMS5003;40450;55.848;-3.572;2022-09-09T10:06:33;5;5;
54553;PMS5003;40450;55.848;-3.572;2022-09-09T10:09:03;8;8;
54553;PMS5003;40450;55.848;-3.572;2022-09-09T10:11:38;8;5;
54553;PMS5003;40450;55.848;-3.572;2022-09-09T10:14:05;8;5;
54553;PMS5003;40450;55.848;-3.572;2022-09-09T10:16:39;6;5;
54553;PMS5003;40450;55.848;-3.572;2022-09-09T10:19:05;5;5;
54553;PMS5003;40450;55.848;-3.572;2022-09-09T10:21:40;4;4;
54553;PMS5003;40450;55.848;-3.572;2022-09-09T10:24:13;4;4;
54553;PMS5003;40450;55.848;-3.572;2022-09-09T10:26:39;6;4;
54553;PMS5003;40450;55.848;-3.572;2022-09-09T10:29:10;6;4;
54553;PMS5003;40450;55.848;-3.572;2022-09-09T10:31:38;5;5;
54553;PMS5003;40450;55.848;-3.572;2022-09-09T10:34:10;5;4;
54553;PMS5003;40450;55.848;-3.572;2022-09-09T10:36:37;8;5;
54553;PMS5003;40450;55.848;-3.572;2022-09-09T10:39:11;9;6;
54553;PMS5003;40450;55.848;-3.572;2022-09-09T10:41:42;6;6;
54553;PMS5003;40450;55.848;-3.572;2022-09-09T10:46:41;6;5;
54553;PMS5003;40450;55.848;-3.572;2022-09-09T10:49:12;7;7;
54553;PMS5003;40450;55.848;-3.572;2022-09-09T10:51:40;6;5;
54553;PMS5003;40450;55.848;-3.572;2022-09-09T10:54:16;5;5;
54553;PMS5003;40450;55.848;-3.572;2022-09-09T10:56:40;7;5;
54553;PMS5003;40450;55.848;-3.572;2022-09-09T10:59:12;5;4;
54553;PMS5003;40450;55.848;-3.572;2022-09-09T11:01:43;3;3;
54553;PMS5003;40450;55.848;-3.572;2022-09-09T11:04:13;4;4;
54553;PMS5003;40450;55.848;-3.572;2022-09-09T11:06:44;6;5;
54553;PMS5003;40450;55.848;-3.572;2022-09-09T11:09:15;7;5;
54553;PMS5003;40450;55.848;-3.572;2022-09-09T11:11:44;6;6;
54553;PMS5003;40450;55.848;-3.572;2022-09-09T11:14:15;6;4;
54553;PMS5003;40450;55.848;-3.572;2022-09-09T11:16:45;5;5;
54553;PMS5003;40450;55.848;-3.572;2022-09-09T11:19:16;6;5;
54553;PMS5003;40450;55.848;-3.572;2022-09-09T11:21:45;4;4;
54553;PMS5003;40450;55.848;-3.572;2022-09-09T11:24:16;4;4;
54553;PMS5003;40450;55.848;-3.572;2022-09-09T11:26:47;4;4;
54553;PMS5003;40450;55.848;-3.572;2022-09-09T11:29:22;5;5;
54553;PMS5003;40450;55.848;-3.572;2022-09-09T11:31:48;5;4;
54553;PMS5003;40450;55.848;-3.572;2022-09-09T11:34:19;4;3;
54553;PMS5003;40450;55.848;-3.572;2022-09-09T11:36:54;4;4;
54553;PMS5003;40450;55.848;-3.572;2022-09-09T11:39:23;3;3;
54553;PMS5003;40450;55.848;-3.572;2022-09-09T11:41:47;4;4;
54553;PMS5003;40450;55.848;-3.572;2022-09-09T11:44:24;3;3;
54553;PMS5003;40450;55.848;-3.572;2022-09-09T11:46:49;3;3;
54553;PMS5003;40450;55.848;-3.572;2022-09-09T11:49:26;4;4;
54553;PMS5003;40450;55.848;-3.572;2022-09-09T11:51:49;4;1;
54553;PMS5003;40450;55.848;-3.572;2022-09-09T11:54:27;4;2;
54553;PMS5003;40450;55.848;-3.572;2022-09-09T11:56:50;4;4;
54553;PMS5003;40450;55.848;-3.572;2022-09-09T11:59:21;5;5;
54553;PMS5003;40450;55.848;-3.572;2022-09-09T12:01:54;5;5;
54553;PMS5003;40450;55.848;-3.572;2022-09-09T12:06:52;5;3;
54553;PMS5003;40450;55.848;-3.572;2022-09-09T12:09:24;2;2;
54553;PMS5003;40450;55.848;-3.572;2022-09-09T12:11:53;6;4;
54553;PMS5003;40450;55.848;-3.572;2022-09-09T12:14:34;3;3;
54553;PMS5003;40450;55.848;-3.572;2022-09-09T12:16:53;2;2;
54553;PMS5003;40450;55.848;-3.572;2022-09-09T12:19:24;5;5;
54553;PMS5003;40450;55.848;-3.572;2022-09-09T12:21:57;4;4;
54553;PMS5003;40450;55.848;-3.572;2022-09-09T12:24:28;3;3;
54553;PMS5003;40450;55.848;-3.572;2022-09-09T12:26:58;2;2;
54553;PMS5003;40450;55.848;-3.572;2022-09-09T12:29:27;5;4;
54553;PMS5003;40450;55.848;-3.572;2022-09-09T12:31:58;3;2;
54553;PMS5003;40450;55.848;-3.572;2022-09-09T12:34:30;3;3;
54553;PMS5003;40450;55.848;-3.572;2022-09-09T12:36:58;8;6;
54553;PMS5003;40450;55.848;-3.572;2022-09-09T12:39:29;4;4;
54553;PMS5003;40450;55.848;-3.572;2022-09-09T12:41:58;6;3;
54553;PMS5003;40450;55.848;-3.572;2022-09-09T12:44:28;7;4;
54553;PMS5003;40450;55.848;-3.572;2022-09-09T12:47:00;3;3;
54553;PMS5003;40450;55.848;-3.572;2022-09-09T12:49:30;5;3;
54553;PMS5003;40450;55.848;-3.572;2022-09-09T12:52:01;3;3;
54553;PMS5003;40450;55.848;-3.572;2022-09-09T12:54:30;6;5;
54553;PMS5003;40450;55.848;-3.572;2022-09-09T12:57:00;4;4;
54553;PMS5003;40450;55.848;-3.572;2022-09-09T12:59:35;5;5;
54553;PMS5003;40450;55.848;-3.572;2022-09-09T13:02:00;4;4;
54553;PMS5003;40450;55.848;-3.572;2022-09-09T13:04:31;4;3;
54553;PMS5003;40450;55.848;-3.572;2022-09-09T13:09:31;5;3;
54553;PMS5003;40450;55.848;-3.572;2022-09-09T13:12:02;5;5;
54553;PMS5003;40450;55.848;-3.572;2022-09-09T13:14:33;4;4;
54553;PMS5003;40450;55.848;-3.572;2022-09-09T13:17:03;4;3;
54553;PMS5003;40450;55.848;-3.572;2022-09-09T13:19:34;3;3;
54553;PMS5003;40450;55.848;-3.572;2022-09-09T13:24:34;6;3;
54553;PMS5003;40450;55.848;-3.572;2022-09-09T13:29:34;4;4;
54553;PMS5003;40450;55.848;-3.572;2022-09-09T13:32:05;2;2;
54553;PMS5003;40450;55.848;-3.572;2022-09-09T13:34:35;10;6;
54553;PMS5003;40450;55.848;-3.572;2022-09-09T13:37:05;6;5;
54553;PMS5003;40450;55.848;-3.572;2022-09-09T13:39:36;4;4;
54553;PMS5003;40450;55.848;-3.572;2022-09-09T13:42:06;6;5;
54553;PMS5003;40450;55.848;-3.572;2022-09-09T13:44:36;5;5;
54553;PMS5003;40450;55.848;-3.572;2022-09-09T13:47:17;7;5;
54553;PMS5003;40450;55.848;-3.572;2022-09-09T13:49:37;6;5;
54553;PMS5003;40450;55.848;-3.572;2022-09-09T13:52:09;8;5;
54553;PMS5003;40450;55.848;-3.572;2022-09-09T13:54:37;3;3;
54553;PMS5003;40450;55.848;-3.572;2022-09-09T13:59:37;5;5;
54553;PMS5003;40450;55.848;-3.572;2022-09-09T14:02:08;6;5;
54553;PMS5003;40450;55.848;-3.572;2022-09-09T14:04:38;5;5;
54553;PMS5003;40450;55.848;-3.572;2022-09-09T14:07:09;4;4;
54553;PMS5003;40450;55.848;-3.572;2022-09-09T14:09:39;4;4;
54553;PMS5003;40450;55.848;-3.572;2022-09-09T14:12:09;4;4;
54553;PMS5003;40450;55.848;-3.572;2022-09-09T14:14:39;3;3;
54553;PMS5003;40450;55.848;-3.572;2022-09-09T14:17:10;7;6;
54553;PMS5003;40450;55.848;-3.572;2022-09-09T14:19:40;8;6;
54553;PMS5003;40450;55.848;-3.572;2022-09-09T14:22:10;7;3;
54553;PMS5003;40450;55.848;-3.572;2022-09-09T14:24:41;3;3;
54553;PMS5003;40450;55.848;-3.572;2022-09-09T14:27:11;6;4;
54553;PMS5003;40450;55.848;-3.572;2022-09-09T14:29:41;6;4;
54553;PMS5003;40450;55.848;-3.572;2022-09-09T14:32:11;5;5;
54553;PMS5003;40450;55.848;-3.572;2022-09-09T14:34:42;5;4;
54553;PMS5003;40450;55.848;-3.572;2022-09-09T14:37:12;5;5;
54553;PMS5003;40450;55.848;-3.572;2022-09-09T14:39:43;4;4;
54553;PMS5003;40450;55.848;-3.572;2022-09-09T14:42:13;4;4;
54553;PMS5003;40450;55.848;-3.572;2022-09-09T14:44:44;4;4;
54553;PMS5003;40450;55.848;-3.572;2022-09-09T14:47:14;6;6;
54553;PMS5003;40450;55.848;-3.572;2022-09-09T14:49:45;5;4;
54553;PMS5003;40450;55.848;-3.572;2022-09-09T14:52:16;6;5;
54553;PMS5003;40450;55.848;-3.572;2022-09-09T14:54:46;5;4;
54553;PMS5003;40450;55.848;-3.572;2022-09-09T14:57:16;5;5;
54553;PMS5003;40450;55.848;-3.572;2022-09-09T14:59:46;2;2;
54553;PMS5003;40450;55.848;-3.572;2022-09-09T15:02:17;7;5;
54553;PMS5003;40450;55.848;-3.572;2022-09-09T15:04:47;4;4;
54553;PMS5003;40450;55.848;-3.572;2022-09-09T15:07:17;8;4;
54553;PMS5003;40450;55.848;-3.572;2022-09-09T15:09:47;5;3;
54553;PMS5003;40450;55.848;-3.572;2022-09-09T15:12:17;4;4;
54553;PMS5003;40450;55.848;-3.572;2022-09-09T15:14:48;6;6;
54553;PMS5003;40450;55.848;-3.572;2022-09-09T15:17:18;5;5;
54553;PMS5003;40450;55.848;-3.572;2022-09-09T15:19:49;4;3;
54553;PMS5003;40450;55.848;-3.572;2022-09-09T15:22:19;8;5;
54553;PMS5003;40450;55.848;-3.572;2022-09-09T15:24:49;4;4;
54553;PMS5003;40450;55.848;-3.572;2022-09-09T15:27:19;3;3;
54553;PMS5003;40450;55.848;-3.572;2022-09-09T15:29:50;5;4;
54553;PMS5003;40450;55.848;-3.572;2022-09-09T15:32:20;6;6;
54553;PMS5003;40450;55.848;-3.572;2022-09-09T15:34:50;6;4;
54553;PMS5003;40450;55.848;-3.572;2022-09-09T15:37:20;6;6;
54553;PMS5003;40450;55.848;-3.572;2022-09-09T15:39:50;6;5;
54553;PMS5003;40450;55.848;-3.572;2022-09-09T15:42:21;5;5;
54553;PMS5003;40450;55.848;-3.572;2022-09-09T15:44:52;7;6;
54553;PMS5003;40450;55.848;-3.572;2022-09-09T15:47:22;7;5;
54553;PMS5003;40450;55.848;-3.572;2022-09-09T15:49:53;6;4;
54553;PMS5003;40450;55.848;-3.572;2022-09-09T15:52:24;6;4;
54553;PMS5003;40450;55.848;-3.572;2022-09-09T15:54:55;8;6;
54553;PMS5003;40450;55.848;-3.572;2022-09-09T15:57:25;2;2;
54553;PMS5003;40450;55.848;-3.572;2022-09-09T15:59:55;3;3;
54553;PMS5003;40450;55.848;-3.572;2022-09-09T16:02:26;1;1;
54553;PMS5003;40450;55.848;-3.572;2022-09-09T16:04:56;3;3;
54553;PMS5003;40450;55.848;-3.572;2022-09-09T16:07:27;4;4;
54553;PMS5003;40450;55.848;-3.572;2022-09-09T16:09:57;2;2;
54553;PMS5003;40450;55.848;-3.572;2022-09-09T16:12:27;4;4;
54553;PMS5003;40450;55.848;-3.572;2022-09-09T16:14:58;3;3;
54553;PMS5003;40450;55.848;-3.572;2022-09-09T16:17:28;5;5;
54553;PMS5003;40450;55.848;-3.572;2022-09-09T16:19:58;5;5;
54553;PMS5003;40450;55.848;-3.572;2022-09-09T16:22:29;5;4;
54553;PMS5003;40450;55.848;-3.572;2022-09-09T16:24:59;3;3;
54553;PMS5003;40450;55.848;-3.572;2022-09-09T16:27:30;2;2;
54553;PMS5003;40450;55.848;-3.572;2022-09-09T16:30:00;3;3;
54553;PMS5003;40450;55.848;-3.572;2022-09-09T16:32:30;2;2;
54553;PMS5003;40450;55.848;-3.572;2022-09-09T16:35:01;2;2;
54553;PMS5003;40450;55.848;-3.572;2022-09-09T16:37:31;3;3;
54553;PMS5003;40450;55.848;-3.572;2022-09-09T16:40:02;3;2;
54553;PMS5003;40450;55.848;-3.572;2022-09-09T16:42:32;3;3;
54553;PMS5003;40450;55.848;-3.572;2022-09-09T16:45:02;3;3;
54553;PMS5003;40450;55.848;-3.572;2022-09-09T16:47:32;8;6;
54553;PMS5003;40450;55.848;-3.572;2022-09-09T16:50:03;6;6;
54553;PMS5003;40450;55.848;-3.572;2022-09-09T16:52:33;10;5;
54553;PMS5003;40450;55.848;-3.572;2022-09-09T16:55:04;3;3;
54553;PMS5003;40450;55.848;-3.572;2022-09-09T16:57:34;5;5;
54553;PMS5003;40450;55.848;-3.572;2022-09-09T17:00:05;8;4;
54553;PMS5003;40450;55.848;-3.572;2022-09-09T17:02:35;3;3;
54553;PMS5003;40450;55.848;-3.572;2022-09-09T17:05:05;4;4;
54553;PMS5003;40450;55.848;-3.572;2022-09-09T17:07:35;4;4;
54553;PMS5003;40450;55.848;-3.572;2022-09-09T17:10:06;4;4;
54553;PMS5003;40450;55.848;-3.572;2022-09-09T17:12:36;8;8;
54553;PMS5003;40450;55.848;-3.572;2022-09-09T17:15:07;8;5;
54553;PMS5003;40450;55.848;-3.572;2022-09-09T17:17:36;8;8;
54553;PMS5003;40450;55.848;-3.572;2022-09-09T17:20:07;9;9;
54553;PMS5003;40450;55.848;-3.572;2022-09-09T17:22:37;7;5;
54553;PMS5003;40450;55.848;-3.572;2022-09-09T17:25:08;10;10;
54553;PMS5003;40450;55.848;-3.572;2022-09-09T17:27:38;13;9;